sensor_id;sensor_type;location;lat;lon;timestamp;P1;durP1;ratioP1;P2;durP2;ratioP2
49764;SDS011;35657;51.204;-4.130;2023-09-08T00:01:57;10.02;;;6.43;;
49764;SDS011;35657;51.204;-4.130;2023-09-08T00:04:23;10.65;;;7.22;;
49764;SDS011;35657;51.204;-4.130;2023-09-08T00:06:49;8.30;;;5.97;;
49764;SDS011;35657;51.204;-4.130;2023-09-08T00:09:15;9.90;;;5.63;;
49764;SDS011;35657;51.204;-4.130;2023-09-08T00:11:40;7.40;;;5.07;;
49764;SDS011;35657;51.204;-4.130;2023-09-08T00:14:06;8.07;;;5.35;;
49764;SDS011;35657;51.204;-4.130;2023-09-08T00:16:32;5.57;;;4.43;;
49764;SDS011;35657;51.204;-4.130;2023-09-08T00:18:58;7.18;;;5.15;;
49764;SDS011;35657;51.204;-4.130;2023-09-08T00:21:27;7.57;;;5.00;;
49764;SDS011;35657;51.204;-4.130;2023-09-08T00:23:52;6.95;;;5.72;;
49764;SDS011;35657;51.204;-4.130;2023-09-08T00:26:18;7.90;;;6.18;;
49764;SDS011;35657;51.204;-4.130;2023-09-08T00:28:45;11.30;;;7.20;;
49764;SDS011;35657;51.204;-4.130;2023-09-08T00:31:10;8.68;;;6.53;;
49764;SDS011;35657;51.204;-4.130;2023-09-08T00:33:36;9.20;;;5.85;;
49764;SDS011;35657;51.204;-4.130;2023-09-08T00:36:02;6.88;;;5.20;;
49764;SDS011;35657;51.204;-4.130;2023-09-08T00:38:28;7.10;;;5.53;;
49764;SDS011;35657;51.204;-4.130;2023-09-08T00:40:54;11.02;;;5.43;;
49764;SDS011;35657;51.204;-4.130;2023-09-08T00:43:20;8.70;;;6.68;;
49764;SDS011;35657;51.204;-4.130;2023-09-08T00:45:46;8.85;;;5.90;;
49764;SDS011;35657;51.204;-4.130;2023-09-08T00:48:13;7.57;;;5.07;;
49764;SDS011;35657;51.204;-4.130;2023-09-08T00:50:39;6.75;;;4.90;;
49764;SDS011;35657;51.204;-4.130;2023-09-08T00:53:04;9.38;;;4.80;;
49764;SDS011;35657;51.204;-4.130;2023-09-08T00:55:31;6.82;;;4.82;;
49764;SDS011;35657;51.204;-4.130;2023-09-08T00:57:58;7.53;;;5.68;;
49764;SDS011;35657;51.204;-4.130;2023-09-08T01:00:24;6.10;;;4.50;;
49764;SDS011;35657;51.204;-4.130;2023-09-08T01:02:51;8.18;;;4.75;;
49764;SDS011;35657;51.204;-4.130;2023-09-08T01:05:16;6.60;;;4.38;;
49764;SDS011;35657;51.204;-4.130;2023-09-08T01:07:43;8.30;;;4.13;;
49764;SDS011;35657;51.204;-4.130;2023-09-08T01:10:10;8.82;;;4.68;;
49764;SDS011;35657;51.204;-4.130;2023-09-08T01:12:36;6.82;;;5.20;;
49764;SDS011;35657;51.204;-4.130;2023-09-08T01:15:02;4.72;;;3.95;;
49764;SDS011;35657;51.204;-4.130;2023-09-08T01:17:32;7.80;;;4.78;;
49764;SDS011;35657;51.204;-4.130;2023-09-08T01:20:02;9.00;;;5.03;;
49764;SDS011;35657;51.204;-4.130;2023-09-08T01:25:15;6.68;;;4.43;;
49764;SDS011;35657;51.204;-4.130;2023-09-08T01:27:52;9.68;;;4.57;;
49764;SDS011;35657;51.204;-4.130;2023-09-08T01:30:19;7.63;;;5.07;;
49764;SDS011;35657;51.204;-4.130;2023-09-08T01:32:47;7.70;;;4.95;;
49764;SDS011;35657;51.204;-4.130;2023-09-08T01:35:13;6.75;;;5.13;;
49764;SDS011;35657;51.204;-4.130;2023-09-08T01:37:44;9.73;;;6.38;;
49764;SDS011;35657;51.204;-4.130;2023-09-08T01:40:11;6.18;;;4.88;;
49764;SDS011;35657;51.204;-4.130;2023-09-08T01:42:38;8.02;;;4.82;;
49764;SDS011;35657;51.204;-4.130;2023-09-08T01:45:04;7.93;;;5.85;;
49764;SDS011;35657;51.204;-4.130;2023-09-08T01:47:30;7.15;;;5.68;;
49764;SDS011;35657;51.204;-4.130;2023-09-08T01:49:56;8.73;;;5.70;;
49764;SDS011;35657;51.204;-4.130;2023-09-08T01:52:22;12.05;;;5.47;;
49764;SDS011;35657;51.204;-4.130;2023-09-08T01:54:49;6.63;;;5.45;;
49764;SDS011;35657;51.204;-4.130;2023-09-08T01:57:14;7.35;;;4.72;;
49764;SDS011;35657;51.204;-4.130;2023-09-08T01:59:40;8.48;;;4.70;;
49764;SDS011;35657;51.204;-4.130;2023-09-08T02:02:06;9.13;;;4.57;;
49764;SDS011;35657;51.204;-4.130;2023-09-08T02:04:32;6.00;;;4.53;;
49764;SDS011;35657;51.204;-4.130;2023-09-08T02:06:58;6.78;;;4.47;;
49764;SDS011;35657;51.204;-4.130;2023-09-08T02:09:33;6.68;;;4.53;;
49764;SDS011;35657;51.204;-4.130;2023-09-08T02:12:00;6.57;;;4.80;;
49764;SDS011;35657;51.204;-4.130;2023-09-08T02:14:26;6.75;;;4.25;;
49764;SDS011;35657;51.204;-4.130;2023-09-08T02:16:53;5.32;;;4.78;;
49764;SDS011;35657;51.204;-4.130;2023-09-08T02:19:19;6.30;;;4.38;;
49764;SDS011;35657;51.204;-4.130;2023-09-08T02:21:45;6.03;;;4.47;;
49764;SDS011;35657;51.204;-4.130;2023-09-08T02:24:11;8.95;;;4.32;;
49764;SDS011;35657;51.204;-4.130;2023-09-08T02:26:37;7.90;;;4.45;;
49764;SDS011;35657;51.204;-4.130;2023-09-08T02:29:03;6.07;;;4.50;;
49764;SDS011;35657;51.204;-4.130;2023-09-08T02:31:30;9.18;;;4.15;;
49764;SDS011;35657;51.204;-4.130;2023-09-08T02:33:55;5.85;;;3.95;;
49764;SDS011;35657;51.204;-4.130;2023-09-08T02:36:21;5.32;;;4.18;;
49764;SDS011;35657;51.204;-4.130;2023-09-08T02:38:56;5.55;;;4.07;;
49764;SDS011;35657;51.204;-4.130;2023-09-08T02:41:22;4.97;;;3.80;;
49764;SDS011;35657;51.204;-4.130;2023-09-08T02:43:48;5.30;;;3.45;;
49764;SDS011;35657;51.204;-4.130;2023-09-08T02:46:14;5.32;;;4.00;;
49764;SDS011;35657;51.204;-4.130;2023-09-08T02:48:40;4.13;;;3.60;;
49764;SDS011;35657;51.204;-4.130;2023-09-08T02:51:06;4.57;;;3.88;;
49764;SDS011;35657;51.204;-4.130;2023-09-08T02:53:32;5.75;;;4.03;;
49764;SDS011;35657;51.204;-4.130;2023-09-08T02:55:58;4.72;;;3.67;;
49764;SDS011;35657;51.204;-4.130;2023-09-08T02:58:24;4.38;;;3.53;;
49764;SDS011;35657;51.204;-4.130;2023-09-08T03:00:51;5.85;;;4.10;;
49764;SDS011;35657;51.204;-4.130;2023-09-08T03:03:20;5.60;;;3.42;;
49764;SDS011;35657;51.204;-4.130;2023-09-08T03:05:46;4.38;;;3.47;;
49764;SDS011;35657;51.204;-4.130;2023-09-08T03:08:12;6.10;;;3.55;;
49764;SDS011;35657;51.204;-4.130;2023-09-08T03:10:38;4.25;;;3.42;;
49764;SDS011;35657;51.204;-4.130;2023-09-08T03:13:05;4.20;;;2.97;;
49764;SDS011;35657;51.204;-4.130;2023-09-08T03:15:31;7.65;;;4.00;;
49764;SDS011;35657;51.204;-4.130;2023-09-08T03:17:57;7.22;;;3.53;;
49764;SDS011;35657;51.204;-4.130;2023-09-08T03:20:24;5.70;;;3.60;;
49764;SDS011;35657;51.204;-4.130;2023-09-08T03:22:53;5.05;;;4.05;;
49764;SDS011;35657;51.204;-4.130;2023-09-08T03:25:19;6.15;;;3.55;;
49764;SDS011;35657;51.204;-4.130;2023-09-08T03:27:45;5.22;;;3.38;;
49764;SDS011;35657;51.204;-4.130;2023-09-08T03:30:11;5.25;;;3.30;;
49764;SDS011;35657;51.204;-4.130;2023-09-08T03:32:37;5.88;;;3.65;;
49764;SDS011;35657;51.204;-4.130;2023-09-08T03:35:03;5.13;;;3.90;;
49764;SDS011;35657;51.204;-4.130;2023-09-08T03:37:32;6.75;;;4.20;;
49764;SDS011;35657;51.204;-4.130;2023-09-08T03:39:59;7.00;;;3.83;;
49764;SDS011;35657;51.204;-4.130;2023-09-08T03:42:25;5.38;;;3.83;;
49764;SDS011;35657;51.204;-4.130;2023-09-08T03:44:51;6.45;;;4.15;;
49764;SDS011;35657;51.204;-4.130;2023-09-08T03:47:16;4.10;;;3.47;;
49764;SDS011;35657;51.204;-4.130;2023-09-08T03:49:42;5.15;;;3.45;;
49764;SDS011;35657;51.204;-4.130;2023-09-08T03:52:08;4.55;;;2.92;;
49764;SDS011;35657;51.204;-4.130;2023-09-08T03:54:33;5.93;;;3.80;;
49764;SDS011;35657;51.204;-4.130;2023-09-08T03:56:59;5.30;;;3.60;;
49764;SDS011;35657;51.204;-4.130;2023-09-08T03:59:25;4.82;;;3.78;;
49764;SDS011;35657;51.204;-4.130;2023-09-08T04:01:51;6.45;;;3.75;;
49764;SDS011;35657;51.204;-4.130;2023-09-08T04:04:16;4.88;;;3.63;;
49764;SDS011;35657;51.204;-4.130;2023-09-08T04:06:45;6.43;;;3.80;;
49764;SDS011;35657;51.204;-4.130;2023-09-08T04:09:10;4.38;;;3.60;;
49764;SDS011;35657;51.204;-4.130;2023-09-08T04:11:36;10.85;;;7.03;;
49764;SDS011;35657;51.204;-4.130;2023-09-08T04:14:02;6.65;;;3.83;;
49764;SDS011;35657;51.204;-4.130;2023-09-08T04:16:28;5.03;;;3.67;;
49764;SDS011;35657;51.204;-4.130;2023-09-08T04:18:54;5.82;;;3.70;;
49764;SDS011;35657;51.204;-4.130;2023-09-08T04:21:19;4.70;;;3.25;;
49764;SDS011;35657;51.204;-4.130;2023-09-08T04:23:45;5.43;;;3.08;;
49764;SDS011;35657;51.204;-4.130;2023-09-08T04:26:11;6.30;;;3.47;;
49764;SDS011;35657;51.204;-4.130;2023-09-08T04:28:37;5.15;;;3.70;;
49764;SDS011;35657;51.204;-4.130;2023-09-08T04:31:03;7.03;;;3.88;;
49764;SDS011;35657;51.204;-4.130;2023-09-08T04:33:29;5.85;;;3.50;;
49764;SDS011;35657;51.204;-4.130;2023-09-08T04:35:55;5.65;;;4.10;;
49764;SDS011;35657;51.204;-4.130;2023-09-08T04:38:21;5.40;;;3.95;;
49764;SDS011;35657;51.204;-4.130;2023-09-08T04:40:46;8.38;;;4.63;;
49764;SDS011;35657;51.204;-4.130;2023-09-08T04:43:12;5.35;;;3.63;;
49764;SDS011;35657;51.204;-4.130;2023-09-08T04:45:38;4.50;;;3.55;;
49764;SDS011;35657;51.204;-4.130;2023-09-08T04:48:06;5.38;;;3.80;;
49764;SDS011;35657;51.204;-4.130;2023-09-08T04:50:32;4.90;;;3.83;;
49764;SDS011;35657;51.204;-4.130;2023-09-08T04:52:58;6.40;;;4.32;;
49764;SDS011;35657;51.204;-4.130;2023-09-08T04:55:23;5.72;;;3.95;;
49764;SDS011;35657;51.204;-4.130;2023-09-08T04:57:49;6.47;;;4.65;;
49764;SDS011;35657;51.204;-4.130;2023-09-08T05:00:15;6.32;;;3.78;;
49764;SDS011;35657;51.204;-4.130;2023-09-08T05:02:41;5.00;;;4.10;;
49764;SDS011;35657;51.204;-4.130;2023-09-08T05:05:07;12.70;;;6.55;;
49764;SDS011;35657;51.204;-4.130;2023-09-08T05:07:33;7.28;;;4.55;;
49764;SDS011;35657;51.204;-4.130;2023-09-08T05:09:59;5.28;;;4.40;;
49764;SDS011;35657;51.204;-4.130;2023-09-08T05:12:24;6.20;;;4.05;;
49764;SDS011;35657;51.204;-4.130;2023-09-08T05:14:50;4.97;;;4.07;;
49764;SDS011;35657;51.204;-4.130;2023-09-08T05:17:21;6.22;;;4.93;;
49764;SDS011;35657;51.204;-4.130;2023-09-08T05:19:47;5.43;;;4.60;;
49764;SDS011;35657;51.204;-4.130;2023-09-08T05:22:12;6.20;;;4.40;;
49764;SDS011;35657;51.204;-4.130;2023-09-08T05:24:39;7.85;;;4.80;;
49764;SDS011;35657;51.204;-4.130;2023-09-08T05:27:05;6.50;;;4.80;;
49764;SDS011;35657;51.204;-4.130;2023-09-08T05:29:30;6.05;;;4.57;;
49764;SDS011;35657;51.204;-4.130;2023-09-08T05:31:56;6.82;;;5.13;;
49764;SDS011;35657;51.204;-4.130;2023-09-08T05:34:22;7.75;;;4.63;;
49764;SDS011;35657;51.204;-4.130;2023-09-08T05:36:47;6.05;;;5.07;;
49764;SDS011;35657;51.204;-4.130;2023-09-08T05:39:16;8.55;;;4.97;;
49764;SDS011;35657;51.204;-4.130;2023-09-08T05:41:44;7.50;;;4.30;;
49764;SDS011;35657;51.204;-4.130;2023-09-08T05:44:10;5.53;;;4.72;;
49764;SDS011;35657;51.204;-4.130;2023-09-08T05:46:36;7.03;;;4.93;;
49764;SDS011;35657;51.204;-4.130;2023-09-08T05:49:01;10.85;;;5.35;;
49764;SDS011;35657;51.204;-4.130;2023-09-08T05:51:27;6.40;;;5.38;;
49764;SDS011;35657;51.204;-4.130;2023-09-08T05:53:53;8.98;;;5.70;;
49764;SDS011;35657;51.204;-4.130;2023-09-08T05:56:19;7.72;;;5.45;;
49764;SDS011;35657;51.204;-4.130;2023-09-08T05:58:45;9.70;;;6.10;;
49764;SDS011;35657;51.204;-4.130;2023-09-08T06:01:12;8.77;;;6.35;;
49764;SDS011;35657;51.204;-4.130;2023-09-08T06:03:38;9.02;;;6.07;;
49764;SDS011;35657;51.204;-4.130;2023-09-08T06:06:03;8.48;;;6.20;;
49764;SDS011;35657;51.204;-4.130;2023-09-08T06:08:29;7.57;;;6.10;;
49764;SDS011;35657;51.204;-4.130;2023-09-08T06:10:55;10.45;;;6.03;;
49764;SDS011;35657;51.204;-4.130;2023-09-08T06:13:20;8.38;;;5.70;;
49764;SDS011;35657;51.204;-4.130;2023-09-08T06:15:46;7.43;;;5.38;;
49764;SDS011;35657;51.204;-4.130;2023-09-08T06:18:12;8.25;;;6.22;;
49764;SDS011;35657;51.204;-4.130;2023-09-08T06:20:45;7.93;;;5.90;;
49764;SDS011;35657;51.204;-4.130;2023-09-08T06:23:11;8.88;;;6.40;;
49764;SDS011;35657;51.204;-4.130;2023-09-08T06:25:37;10.35;;;6.20;;
49764;SDS011;35657;51.204;-4.130;2023-09-08T06:28:03;8.00;;;6.18;;
49764;SDS011;35657;51.204;-4.130;2023-09-08T06:30:28;10.13;;;7.93;;
49764;SDS011;35657;51.204;-4.130;2023-09-08T06:32:54;9.48;;;5.63;;
49764;SDS011;35657;51.204;-4.130;2023-09-08T06:35:20;7.72;;;5.72;;
49764;SDS011;35657;51.204;-4.130;2023-09-08T06:37:46;9.07;;;5.90;;
49764;SDS011;35657;51.204;-4.130;2023-09-08T06:40:11;11.02;;;6.35;;
49764;SDS011;35657;51.204;-4.130;2023-09-08T06:42:37;11.07;;;5.72;;
49764;SDS011;35657;51.204;-4.130;2023-09-08T06:45:03;7.55;;;5.75;;
49764;SDS011;35657;51.204;-4.130;2023-09-08T06:47:29;9.23;;;6.45;;
49764;SDS011;35657;51.204;-4.130;2023-09-08T06:49:55;10.43;;;6.00;;
49764;SDS011;35657;51.204;-4.130;2023-09-08T06:52:21;9.23;;;6.55;;
49764;SDS011;35657;51.204;-4.130;2023-09-08T06:54:46;9.02;;;7.03;;
49764;SDS011;35657;51.204;-4.130;2023-09-08T06:57:12;10.43;;;6.82;;
49764;SDS011;35657;51.204;-4.130;2023-09-08T06:59:38;9.48;;;6.70;;
49764;SDS011;35657;51.204;-4.130;2023-09-08T07:02:04;11.52;;;7.30;;
49764;SDS011;35657;51.204;-4.130;2023-09-08T07:04:32;10.52;;;6.80;;
49764;SDS011;35657;51.204;-4.130;2023-09-08T07:06:57;10.55;;;7.13;;
49764;SDS011;35657;51.204;-4.130;2023-09-08T07:09:23;11.45;;;6.97;;
49764;SDS011;35657;51.204;-4.130;2023-09-08T07:11:49;7.90;;;6.25;;
49764;SDS011;35657;51.204;-4.130;2023-09-08T07:14:15;10.73;;;6.38;;
49764;SDS011;35657;51.204;-4.130;2023-09-08T07:16:41;13.48;;;6.68;;
49764;SDS011;35657;51.204;-4.130;2023-09-08T07:19:07;9.20;;;6.50;;
49764;SDS011;35657;51.204;-4.130;2023-09-08T07:21:32;9.45;;;6.95;;
49764;SDS011;35657;51.204;-4.130;2023-09-08T07:23:58;9.82;;;7.05;;
49764;SDS011;35657;51.204;-4.130;2023-09-08T07:26:24;8.73;;;5.47;;
49764;SDS011;35657;51.204;-4.130;2023-09-08T07:28:50;9.18;;;6.22;;
49764;SDS011;35657;51.204;-4.130;2023-09-08T07:31:15;14.60;;;6.68;;
49764;SDS011;35657;51.204;-4.130;2023-09-08T07:33:41;11.23;;;6.72;;
49764;SDS011;35657;51.204;-4.130;2023-09-08T07:36:07;8.45;;;6.22;;
49764;SDS011;35657;51.204;-4.130;2023-09-08T07:38:34;9.52;;;6.72;;
49764;SDS011;35657;51.204;-4.130;2023-09-08T07:41:03;7.18;;;6.45;;
49764;SDS011;35657;51.204;-4.130;2023-09-08T07:43:29;9.23;;;7.03;;
49764;SDS011;35657;51.204;-4.130;2023-09-08T07:45:55;9.65;;;6.78;;
49764;SDS011;35657;51.204;-4.130;2023-09-08T07:48:20;9.82;;;7.03;;
49764;SDS011;35657;51.204;-4.130;2023-09-08T07:50:46;9.70;;;7.07;;
49764;SDS011;35657;51.204;-4.130;2023-09-08T07:53:12;8.00;;;6.85;;
49764;SDS011;35657;51.204;-4.130;2023-09-08T07:55:38;8.88;;;6.78;;
49764;SDS011;35657;51.204;-4.130;2023-09-08T07:58:03;10.60;;;6.80;;
49764;SDS011;35657;51.204;-4.130;2023-09-08T08:00:29;10.18;;;7.60;;
49764;SDS011;35657;51.204;-4.130;2023-09-08T08:02:56;10.25;;;7.40;;
49764;SDS011;35657;51.204;-4.130;2023-09-08T08:05:23;9.75;;;7.15;;
49764;SDS011;35657;51.204;-4.130;2023-09-08T08:07:49;11.80;;;7.57;;
49764;SDS011;35657;51.204;-4.130;2023-09-08T08:10:15;9.90;;;6.70;;
49764;SDS011;35657;51.204;-4.130;2023-09-08T08:12:41;9.57;;;7.40;;
49764;SDS011;35657;51.204;-4.130;2023-09-08T08:15:08;11.65;;;7.60;;
49764;SDS011;35657;51.204;-4.130;2023-09-08T08:17:35;10.93;;;6.75;;
49764;SDS011;35657;51.204;-4.130;2023-09-08T08:20:02;9.95;;;6.65;;
49764;SDS011;35657;51.204;-4.130;2023-09-08T08:22:35;11.18;;;7.75;;
49764;SDS011;35657;51.204;-4.130;2023-09-08T08:25:02;11.52;;;7.20;;
49764;SDS011;35657;51.204;-4.130;2023-09-08T08:27:28;9.70;;;8.00;;
49764;SDS011;35657;51.204;-4.130;2023-09-08T08:29:56;12.63;;;8.73;;
49764;SDS011;35657;51.204;-4.130;2023-09-08T08:32:24;12.10;;;8.80;;
49764;SDS011;35657;51.204;-4.130;2023-09-08T08:34:51;11.15;;;8.55;;
49764;SDS011;35657;51.204;-4.130;2023-09-08T08:37:16;13.82;;;9.70;;
49764;SDS011;35657;51.204;-4.130;2023-09-08T08:39:43;17.85;;;9.05;;
49764;SDS011;35657;51.204;-4.130;2023-09-08T08:42:09;16.42;;;9.60;;
49764;SDS011;35657;51.204;-4.130;2023-09-08T08:44:36;17.40;;;10.45;;
49764;SDS011;35657;51.204;-4.130;2023-09-08T08:47:05;23.02;;;13.75;;
49764;SDS011;35657;51.204;-4.130;2023-09-08T08:49:33;26.30;;;15.52;;
49764;SDS011;35657;51.204;-4.130;2023-09-08T08:51:59;26.23;;;16.67;;
49764;SDS011;35657;51.204;-4.130;2023-09-08T08:54:33;30.25;;;17.52;;
49764;SDS011;35657;51.204;-4.130;2023-09-08T08:57:02;26.08;;;17.35;;
49764;SDS011;35657;51.204;-4.130;2023-09-08T08:59:29;28.50;;;17.00;;
49764;SDS011;35657;51.204;-4.130;2023-09-08T09:01:55;23.95;;;15.65;;
49764;SDS011;35657;51.204;-4.130;2023-09-08T09:04:22;22.30;;;17.00;;
49764;SDS011;35657;51.204;-4.130;2023-09-08T09:06:49;23.50;;;15.90;;
49764;SDS011;35657;51.204;-4.130;2023-09-08T09:09:15;26.90;;;14.18;;
49764;SDS011;35657;51.204;-4.130;2023-09-08T09:11:41;20.95;;;14.05;;
49764;SDS011;35657;51.204;-4.130;2023-09-08T09:14:08;20.60;;;13.32;;
49764;SDS011;35657;51.204;-4.130;2023-09-08T09:16:40;19.60;;;12.38;;
49764;SDS011;35657;51.204;-4.130;2023-09-08T09:19:07;15.95;;;11.68;;
49764;SDS011;35657;51.204;-4.130;2023-09-08T09:21:41;23.40;;;13.25;;
49764;SDS011;35657;51.204;-4.130;2023-09-08T09:24:15;15.98;;;11.15;;
49764;SDS011;35657;51.204;-4.130;2023-09-08T09:26:42;17.27;;;12.50;;
49764;SDS011;35657;51.204;-4.130;2023-09-08T09:29:14;25.35;;;14.25;;
49764;SDS011;35657;51.204;-4.130;2023-09-08T09:32:25;21.83;;;13.23;;
49764;SDS011;35657;51.204;-4.130;2023-09-08T09:34:31;20.92;;;14.35;;
49764;SDS011;35657;51.204;-4.130;2023-09-08T09:36:57;30.60;;;17.50;;
49764;SDS011;35657;51.204;-4.130;2023-09-08T09:39:24;30.55;;;18.13;;
49764;SDS011;35657;51.204;-4.130;2023-09-08T09:41:54;29.42;;;17.40;;
49764;SDS011;35657;51.204;-4.130;2023-09-08T09:44:21;27.65;;;16.42;;
49764;SDS011;35657;51.204;-4.130;2023-09-08T09:46:48;29.05;;;18.95;;
49764;SDS011;35657;51.204;-4.130;2023-09-08T09:49:16;29.33;;;16.75;;
49764;SDS011;35657;51.204;-4.130;2023-09-08T09:51:48;25.27;;;16.85;;
49764;SDS011;35657;51.204;-4.130;2023-09-08T09:54:16;24.67;;;17.98;;
49764;SDS011;35657;51.204;-4.130;2023-09-08T09:56:42;26.42;;;17.10;;
49764;SDS011;35657;51.204;-4.130;2023-09-08T09:59:09;26.63;;;16.13;;
49764;SDS011;35657;51.204;-4.130;2023-09-08T10:01:37;21.02;;;15.10;;
49764;SDS011;35657;51.204;-4.130;2023-09-08T10:04:05;27.20;;;15.75;;
49764;SDS011;35657;51.204;-4.130;2023-09-08T10:06:32;23.38;;;14.13;;
49764;SDS011;35657;51.204;-4.130;2023-09-08T10:09:00;22.58;;;14.43;;
49764;SDS011;35657;51.204;-4.130;2023-09-08T10:11:29;29.27;;;16.20;;
49764;SDS011;35657;51.204;-4.130;2023-09-08T10:13:59;27.20;;;13.50;;
49764;SDS011;35657;51.204;-4.130;2023-09-08T10:16:26;18.13;;;12.93;;
49764;SDS011;35657;51.204;-4.130;2023-09-08T10:18:53;23.02;;;15.15;;
49764;SDS011;35657;51.204;-4.130;2023-09-08T10:21:23;21.67;;;14.80;;
49764;SDS011;35657;51.204;-4.130;2023-09-08T10:23:54;20.48;;;13.40;;
49764;SDS011;35657;51.204;-4.130;2023-09-08T10:26:26;22.50;;;14.47;;
49764;SDS011;35657;51.204;-4.130;2023-09-08T10:28:53;22.77;;;13.50;;
49764;SDS011;35657;51.204;-4.130;2023-09-08T10:31:23;31.17;;;13.93;;
49764;SDS011;35657;51.204;-4.130;2023-09-08T10:33:51;20.08;;;14.80;;
49764;SDS011;35657;51.204;-4.130;2023-09-08T10:36:22;20.95;;;13.68;;
49764;SDS011;35657;51.204;-4.130;2023-09-08T10:38:48;24.13;;;14.43;;
49764;SDS011;35657;51.204;-4.130;2023-09-08T10:43:55;22.23;;;14.27;;
49764;SDS011;35657;51.204;-4.130;2023-09-08T10:46:31;22.85;;;13.98;;
49764;SDS011;35657;51.204;-4.130;2023-09-08T10:49:01;25.17;;;15.63;;
49764;SDS011;35657;51.204;-4.130;2023-09-08T10:51:28;27.10;;;15.90;;
49764;SDS011;35657;51.204;-4.130;2023-09-08T10:53:54;24.95;;;15.93;;
49764;SDS011;35657;51.204;-4.130;2023-09-08T10:56:20;28.80;;;17.50;;
49764;SDS011;35657;51.204;-4.130;2023-09-08T10:58:50;33.08;;;18.38;;
49764;SDS011;35657;51.204;-4.130;2023-09-08T11:01:17;30.50;;;19.50;;
49764;SDS011;35657;51.204;-4.130;2023-09-08T11:03:52;32.88;;;22.30;;
49764;SDS011;35657;51.204;-4.130;2023-09-08T11:06:19;34.72;;;20.58;;
49764;SDS011;35657;51.204;-4.130;2023-09-08T11:08:49;34.72;;;18.77;;
49764;SDS011;35657;51.204;-4.130;2023-09-08T11:11:18;36.58;;;18.45;;
49764;SDS011;35657;51.204;-4.130;2023-09-08T11:13:44;41.38;;;21.70;;
49764;SDS011;35657;51.204;-4.130;2023-09-08T11:16:15;32.78;;;21.13;;
49764;SDS011;35657;51.204;-4.130;2023-09-08T11:18:42;33.53;;;19.95;;
49764;SDS011;35657;51.204;-4.130;2023-09-08T11:21:08;35.95;;;20.77;;
49764;SDS011;35657;51.204;-4.130;2023-09-08T11:23:35;31.10;;;18.35;;
49764;SDS011;35657;51.204;-4.130;2023-09-08T11:26:01;27.38;;;17.13;;
49764;SDS011;35657;51.204;-4.130;2023-09-08T11:28:27;27.30;;;17.10;;
49764;SDS011;35657;51.204;-4.130;2023-09-08T11:30:53;31.85;;;17.92;;
49764;SDS011;35657;51.204;-4.130;2023-09-08T11:33:20;28.20;;;16.25;;
49764;SDS011;35657;51.204;-4.130;2023-09-08T11:35:51;23.40;;;14.93;;
49764;SDS011;35657;51.204;-4.130;2023-09-08T11:38:22;30.05;;;19.55;;
49764;SDS011;35657;51.204;-4.130;2023-09-08T11:40:53;30.00;;;19.23;;
49764;SDS011;35657;51.204;-4.130;2023-09-08T11:43:20;29.23;;;17.67;;
49764;SDS011;35657;51.204;-4.130;2023-09-08T11:45:46;32.78;;;17.05;;
49764;SDS011;35657;51.204;-4.130;2023-09-08T11:48:13;23.98;;;16.48;;
49764;SDS011;35657;51.204;-4.130;2023-09-08T11:50:40;32.42;;;18.38;;
49764;SDS011;35657;51.204;-4.130;2023-09-08T11:53:07;31.00;;;15.18;;
49764;SDS011;35657;51.204;-4.130;2023-09-08T11:55:32;29.02;;;16.70;;
49764;SDS011;35657;51.204;-4.130;2023-09-08T11:57:59;26.40;;;14.63;;
49764;SDS011;35657;51.204;-4.130;2023-09-08T12:00:27;21.27;;;14.07;;
49764;SDS011;35657;51.204;-4.130;2023-09-08T12:02:54;21.13;;;13.95;;
49764;SDS011;35657;51.204;-4.130;2023-09-08T12:07:56;21.65;;;15.15;;
49764;SDS011;35657;51.204;-4.130;2023-09-08T12:10:23;26.85;;;16.02;;
49764;SDS011;35657;51.204;-4.130;2023-09-08T12:12:51;28.48;;;15.93;;
49764;SDS011;35657;51.204;-4.130;2023-09-08T12:15:31;27.23;;;16.65;;
49764;SDS011;35657;51.204;-4.130;2023-09-08T12:18:01;27.38;;;16.60;;
49764;SDS011;35657;51.204;-4.130;2023-09-08T12:20:31;26.60;;;15.32;;
49764;SDS011;35657;51.204;-4.130;2023-09-08T12:23:01;24.95;;;15.15;;
49764;SDS011;35657;51.204;-4.130;2023-09-08T12:25:28;29.35;;;17.95;;
49764;SDS011;35657;51.204;-4.130;2023-09-08T12:27:58;27.42;;;15.35;;
49764;SDS011;35657;51.204;-4.130;2023-09-08T12:30:25;23.27;;;15.50;;
49764;SDS011;35657;51.204;-4.130;2023-09-08T12:32:55;24.95;;;14.77;;
49764;SDS011;35657;51.204;-4.130;2023-09-08T12:35:23;28.25;;;14.68;;
49764;SDS011;35657;51.204;-4.130;2023-09-08T12:37:56;30.00;;;18.55;;
49764;SDS011;35657;51.204;-4.130;2023-09-08T12:40:24;26.20;;;17.67;;
49764;SDS011;35657;51.204;-4.130;2023-09-08T12:42:53;27.30;;;16.98;;
49764;SDS011;35657;51.204;-4.130;2023-09-08T12:45:22;25.40;;;15.10;;
49764;SDS011;35657;51.204;-4.130;2023-09-08T12:47:48;26.70;;;15.52;;
49764;SDS011;35657;51.204;-4.130;2023-09-08T12:50:15;23.20;;;16.95;;
49764;SDS011;35657;51.204;-4.130;2023-09-08T12:52:40;25.90;;;16.70;;
49764;SDS011;35657;51.204;-4.130;2023-09-08T12:55:07;23.65;;;14.82;;
49764;SDS011;35657;51.204;-4.130;2023-09-08T12:57:33;25.38;;;16.65;;
49764;SDS011;35657;51.204;-4.130;2023-09-08T12:59:59;22.88;;;15.38;;
49764;SDS011;35657;51.204;-4.130;2023-09-08T13:02:25;28.45;;;17.55;;
49764;SDS011;35657;51.204;-4.130;2023-09-08T13:04:51;39.40;;;18.88;;
49764;SDS011;35657;51.204;-4.130;2023-09-08T13:07:17;25.05;;;15.38;;
49764;SDS011;35657;51.204;-4.130;2023-09-08T13:09:43;24.58;;;15.20;;
49764;SDS011;35657;51.204;-4.130;2023-09-08T13:12:09;30.52;;;18.02;;
49764;SDS011;35657;51.204;-4.130;2023-09-08T13:14:36;24.65;;;15.13;;
49764;SDS011;35657;51.204;-4.130;2023-09-08T13:17:02;24.25;;;13.10;;
49764;SDS011;35657;51.204;-4.130;2023-09-08T13:19:28;23.63;;;14.13;;
49764;SDS011;35657;51.204;-4.130;2023-09-08T13:21:54;27.70;;;14.40;;
49764;SDS011;35657;51.204;-4.130;2023-09-08T13:24:20;20.55;;;12.50;;
49764;SDS011;35657;51.204;-4.130;2023-09-08T13:26:47;22.27;;;13.25;;
49764;SDS011;35657;51.204;-4.130;2023-09-08T13:29:13;26.83;;;16.02;;
49764;SDS011;35657;51.204;-4.130;2023-09-08T13:31:38;26.98;;;14.23;;
49764;SDS011;35657;51.204;-4.130;2023-09-08T13:34:04;21.05;;;13.45;;
49764;SDS011;35657;51.204;-4.130;2023-09-08T13:36:30;19.00;;;11.68;;
49764;SDS011;35657;51.204;-4.130;2023-09-08T13:38:56;19.70;;;11.48;;
49764;SDS011;35657;51.204;-4.130;2023-09-08T13:41:23;19.17;;;13.00;;
49764;SDS011;35657;51.204;-4.130;2023-09-08T13:43:49;23.08;;;12.70;;
49764;SDS011;35657;51.204;-4.130;2023-09-08T13:46:15;24.33;;;14.38;;
49764;SDS011;35657;51.204;-4.130;2023-09-08T13:48:41;22.92;;;12.90;;
49764;SDS011;35657;51.204;-4.130;2023-09-08T13:51:07;28.27;;;17.95;;
49764;SDS011;35657;51.204;-4.130;2023-09-08T13:53:33;25.77;;;17.17;;
49764;SDS011;35657;51.204;-4.130;2023-09-08T13:56:00;28.85;;;17.27;;
49764;SDS011;35657;51.204;-4.130;2023-09-08T13:58:26;28.95;;;15.00;;
49764;SDS011;35657;51.204;-4.130;2023-09-08T14:00:52;25.40;;;14.18;;
49764;SDS011;35657;51.204;-4.130;2023-09-08T14:03:17;24.77;;;14.70;;
49764;SDS011;35657;51.204;-4.130;2023-09-08T14:05:46;19.08;;;12.98;;
49764;SDS011;35657;51.204;-4.130;2023-09-08T14:08:12;24.83;;;14.55;;
49764;SDS011;35657;51.204;-4.130;2023-09-08T14:10:37;23.05;;;12.25;;
49764;SDS011;35657;51.204;-4.130;2023-09-08T14:13:03;24.67;;;14.13;;
49764;SDS011;35657;51.204;-4.130;2023-09-08T14:15:29;25.38;;;13.60;;
49764;SDS011;35657;51.204;-4.130;2023-09-08T14:17:54;24.67;;;13.50;;
49764;SDS011;35657;51.204;-4.130;2023-09-08T14:20:21;25.90;;;16.25;;
49764;SDS011;35657;51.204;-4.130;2023-09-08T14:22:46;23.65;;;13.65;;
49764;SDS011;35657;51.204;-4.130;2023-09-08T14:25:12;27.10;;;14.40;;
49764;SDS011;35657;51.204;-4.130;2023-09-08T14:27:38;23.95;;;14.23;;
49764;SDS011;35657;51.204;-4.130;2023-09-08T14:30:04;24.52;;;15.40;;